createdAt,value
2019-03-03T00:01:33.736Z,21.30
2019-03-03T00:03:59.785Z,21.30
2019-03-03T00:08:52.350Z,21.30
2019-03-03T00:11:18.472Z,21.30
2019-03-03T00:13:44.887Z,21.20
2019-03-03T00:16:10.933Z,21.20
2019-03-03T00:18:36.976Z,21.30
2019-03-03T00:21:03.063Z,21.20
2019-03-03T00:23:29.148Z,21.20
2019-03-03T00:25:55.225Z,21.20
2019-03-03T00:28:21.642Z,21.20
2019-03-03T00:30:47.822Z,21.10
2019-03-03T00:33:13.969Z,21.10
2019-03-03T00:35:40.316Z,21.20
2019-03-03T00:38:08.340Z,21.20
2019-03-03T00:43:32.111Z,21.10
2019-03-03T00:46:09.569Z,21.10
2019-03-03T00:51:30.985Z,21.10
2019-03-03T00:54:04.941Z,21.00
2019-03-03T00:56:32.888Z,21.00
2019-03-03T00:59:00.925Z,21.00
2019-03-03T01:01:38.131Z,21.00
2019-03-03T01:06:41.092Z,21.00
2019-03-03T01:09:29.913Z,21.00
2019-03-03T01:12:13.423Z,20.90
2019-03-03T01:14:56.386Z,20.90
2019-03-03T01:17:24.477Z,20.90
2019-03-03T01:20:10.156Z,21.00
2019-03-03T01:22:50.248Z,20.90
2019-03-03T01:25:16.295Z,20.90
2019-03-03T01:27:42.600Z,20.90
2019-03-03T01:30:12.853Z,20.90
2019-03-03T01:32:39.255Z,20.90
2019-03-03T01:35:08.555Z,20.90
2019-03-03T01:37:34.633Z,20.90
2019-03-03T01:42:27.132Z,20.80
2019-03-03T01:44:53.233Z,20.80
2019-03-03T01:49:45.692Z,20.80
2019-03-03T01:52:11.824Z,20.80
2019-03-03T01:54:38.175Z,20.80
2019-03-03T01:57:04.700Z,20.80
2019-03-03T01:59:30.747Z,20.70
2019-03-03T02:01:56.796Z,20.70
2019-03-03T02:04:22.874Z,20.70
2019-03-03T02:09:16.646Z,20.70
2019-03-03T02:16:36.157Z,20.60
2019-03-03T02:19:03.515Z,20.60
2019-03-03T02:23:56.787Z,20.60
2019-03-03T02:26:22.831Z,20.60
2019-03-03T02:28:49.240Z,20.60
2019-03-03T02:31:15.345Z,20.60
2019-03-03T02:33:41.859Z,20.60
2019-03-03T02:36:08.005Z,20.60
2019-03-03T02:38:34.052Z,20.60
2019-03-03T02:45:53.275Z,20.60
2019-03-03T02:48:19.575Z,20.50
2019-03-03T02:58:04.984Z,20.50
2019-03-03T03:02:59.787Z,20.50
2019-03-03T03:05:31.674Z,20.40
2019-03-03T03:08:09.058Z,20.40
2019-03-03T03:10:40.072Z,20.40
2019-03-03T03:13:08.027Z,20.50
2019-03-03T03:15:52.743Z,20.40
2019-03-03T03:18:20.693Z,20.40
2019-03-03T03:20:48.645Z,20.40
2019-03-03T03:23:16.629Z,20.40
2019-03-03T03:28:29.882Z,20.40
2019-03-03T03:31:04.081Z,20.30
2019-03-03T03:33:32.186Z,20.30
2019-03-03T03:36:10.327Z,20.30
2019-03-03T03:38:47.447Z,20.30
2019-03-03T03:41:15.397Z,20.30
2019-03-03T03:43:59.871Z,20.30
2019-03-03T03:46:30.858Z,20.30
2019-03-03T03:49:05.126Z,20.30
2019-03-03T03:51:33.085Z,20.20
2019-03-03T03:54:17.806Z,20.20
2019-03-03T03:56:49.611Z,20.20
2019-03-03T03:59:34.368Z,20.20
2019-03-03T04:02:06.233Z,20.20
2019-03-03T04:07:02.704Z,20.10
2019-03-03T04:09:33.476Z,20.20
2019-03-03T04:12:16.244Z,20.10
2019-03-03T04:14:44.508Z,20.10
2019-03-03T04:17:12.500Z,20.10
2019-03-03T04:22:09.225Z,20.10
2019-03-03T04:24:53.384Z,20.10
2019-03-03T04:27:30.455Z,20.10
2019-03-03T04:30:07.196Z,20.10
2019-03-03T04:32:35.507Z,20.10
2019-03-03T04:35:04.455Z,20.10
2019-03-03T04:37:41.272Z,20.10
2019-03-03T04:42:44.485Z,20.00
2019-03-03T04:50:17.716Z,20.00
2019-03-03T04:52:48.593Z,20.00
2019-03-03T04:58:06.358Z,20.00
2019-03-03T05:00:42.993Z,19.90
2019-03-03T05:03:22.976Z,19.90
2019-03-03T05:06:06.168Z,19.90
2019-03-03T05:08:37.176Z,19.90
2019-03-03T05:11:07.693Z,19.80
2019-03-03T05:16:22.190Z,19.80
2019-03-03T05:18:50.196Z,19.80
2019-03-03T05:21:16.236Z,19.80
2019-03-03T05:23:42.367Z,19.80
2019-03-03T05:26:08.416Z,19.80
2019-03-03T05:28:34.497Z,19.70
2019-03-03T05:31:00.611Z,19.80
2019-03-03T05:38:19.919Z,19.70
2019-03-03T05:40:45.986Z,19.70
2019-03-03T05:43:12.031Z,19.70
2019-03-03T05:45:38.124Z,19.70
2019-03-03T05:55:24.172Z,19.60
2019-03-03T05:57:50.245Z,19.60
2019-03-03T06:00:16.435Z,19.60
2019-03-03T06:02:42.571Z,19.60
2019-03-03T06:05:08.746Z,19.60
2019-03-03T06:07:34.828Z,19.60
2019-03-03T06:10:01.223Z,19.50
2019-03-03T06:12:27.653Z,19.60
2019-03-03T06:14:53.708Z,19.60
2019-03-03T06:17:19.780Z,19.50
2019-03-03T06:19:46.135Z,19.50
2019-03-03T06:24:38.677Z,19.50
2019-03-03T06:27:04.712Z,19.50
2019-03-03T06:34:24.443Z,19.60
2019-03-03T06:36:50.479Z,19.60
2019-03-03T06:44:09.448Z,19.60
2019-03-03T06:46:35.523Z,19.60
2019-03-03T06:49:01.649Z,19.60
2019-03-03T06:51:27.736Z,19.60
2019-03-03T06:53:53.853Z,19.60
2019-03-03T06:56:19.897Z,19.60
2019-03-03T06:58:45.940Z,19.60
2019-03-03T07:01:12.305Z,19.60
2019-03-03T07:03:38.352Z,19.60
2019-03-03T07:06:04.435Z,19.60
2019-03-03T07:13:23.751Z,19.60
2019-03-03T07:18:16.287Z,19.50
2019-03-03T07:20:42.337Z,19.60
2019-03-03T07:23:08.415Z,19.60
2019-03-03T07:25:34.459Z,19.60
2019-03-03T07:28:00.506Z,19.60
2019-03-03T07:30:26.579Z,19.60
2019-03-03T07:33:03.748Z,19.60
2019-03-03T07:42:50.663Z,19.60
2019-03-03T07:45:17.101Z,19.60
2019-03-03T07:47:43.148Z,19.60
2019-03-03T07:50:09.640Z,19.60
2019-03-03T07:55:05.711Z,19.60
2019-03-03T08:02:24.624Z,19.60
2019-03-03T08:07:17.417Z,19.60
2019-03-03T08:09:43.624Z,19.60
2019-03-03T08:12:10.021Z,19.60
2019-03-03T08:14:36.455Z,19.60
2019-03-03T08:17:02.691Z,19.60
2019-03-03T08:19:28.780Z,19.60
2019-03-03T08:21:55.335Z,19.60
2019-03-03T08:24:21.409Z,19.60
2019-03-03T08:26:47.470Z,19.60
2019-03-03T08:29:13.743Z,19.70
2019-03-03T08:31:39.820Z,19.70
2019-03-03T08:34:05.960Z,19.70
2019-03-03T08:36:32.027Z,19.70
2019-03-03T08:38:58.077Z,19.70
2019-03-03T08:49:05.808Z,19.80
2019-03-03T08:56:33.676Z,19.90
2019-03-03T08:59:18.329Z,19.90
2019-03-03T09:01:49.436Z,20.00
2019-03-03T09:04:29.840Z,20.00
2019-03-03T09:07:09.532Z,20.00
2019-03-03T09:09:52.461Z,20.00
2019-03-03T09:15:09.948Z,20.00
2019-03-03T09:20:31.485Z,20.10
2019-03-03T09:22:59.505Z,20.10
2019-03-03T09:25:44.192Z,20.20
2019-03-03T09:28:29.436Z,20.10
2019-03-03T09:31:14.150Z,20.20
2019-03-03T09:33:42.164Z,20.20
2019-03-03T09:36:19.191Z,20.30
2019-03-03T09:38:47.252Z,20.30
2019-03-03T09:44:01.441Z,20.30
2019-03-03T09:46:46.183Z,20.30
2019-03-03T09:49:22.996Z,20.30
2019-03-03T09:52:16.825Z,20.30
2019-03-03T09:55:01.870Z,20.30
2019-03-03T10:00:15.434Z,20.30
2019-03-03T10:02:49.169Z,20.30
2019-03-03T10:10:28.788Z,20.40
2019-03-03T10:13:13.390Z,20.40
2019-03-03T10:15:42.235Z,20.40
2019-03-03T10:20:50.665Z,20.50
2019-03-03T10:23:19.045Z,20.50
2019-03-03T10:26:01.660Z,20.50
2019-03-03T10:28:35.461Z,20.50
2019-03-03T10:31:06.593Z,20.50
2019-03-03T10:33:51.074Z,20.50
2019-03-03T10:36:35.711Z,20.50
2019-03-03T10:39:05.125Z,20.50
2019-03-03T10:41:33.086Z,20.50
2019-03-03T10:44:13.336Z,20.50
2019-03-03T10:46:41.985Z,20.50
2019-03-03T10:51:41.451Z,20.50
2019-03-03T10:54:19.145Z,20.50
2019-03-03T10:57:03.567Z,20.50
2019-03-03T10:59:54.811Z,20.50
2019-03-03T11:02:25.580Z,20.50
2019-03-03T11:04:56.715Z,20.50
2019-03-03T11:10:02.043Z,20.50
2019-03-03T11:18:03.329Z,20.60
2019-03-03T11:23:08.679Z,20.60
2019-03-03T11:25:42.467Z,20.70
2019-03-03T11:28:11.422Z,20.70
2019-03-03T11:33:25.527Z,20.70
2019-03-03T11:35:57.192Z,20.80
2019-03-03T11:43:59.716Z,20.80
2019-03-03T11:46:42.640Z,20.90
2019-03-03T11:51:57.502Z,20.90
2019-03-03T11:57:06.240Z,21.00
2019-03-03T12:07:49.330Z,21.00
2019-03-03T12:13:09.623Z,21.00
2019-03-03T12:15:46.504Z,21.00
2019-03-03T12:18:20.606Z,21.00
2019-03-03T12:25:57.218Z,21.10
2019-03-03T12:28:41.664Z,21.10
2019-03-03T12:33:44.339Z,21.10
2019-03-03T12:36:19.392Z,21.10
2019-03-03T12:39:03.953Z,21.10
2019-03-03T12:41:43.796Z,21.10
2019-03-03T12:46:48.896Z,21.10
2019-03-03T12:49:32.244Z,21.00
2019-03-03T12:52:00.257Z,21.10
2019-03-03T12:57:05.124Z,21.10
2019-03-03T12:59:41.972Z,21.10
2019-03-03T13:02:19.497Z,21.10
2019-03-03T13:05:05.557Z,21.10
2019-03-03T13:07:36.153Z,21.00
2019-03-03T13:10:10.810Z,21.10
2019-03-03T13:15:18.999Z,21.10
2019-03-03T13:17:52.487Z,21.10
2019-03-03T13:20:20.449Z,21.10
2019-03-03T13:22:48.773Z,21.10
2019-03-03T13:25:16.849Z,21.10
2019-03-03T13:27:45.095Z,21.20
2019-03-03T13:30:15.161Z,21.20
2019-03-03T13:35:17.932Z,21.30
2019-03-03T13:37:48.547Z,21.30
2019-03-03T13:40:19.003Z,21.30
2019-03-03T13:42:49.724Z,21.30
2019-03-03T13:47:43.119Z,21.30
2019-03-03T13:52:37.939Z,21.20
2019-03-03T13:57:32.856Z,21.20
2019-03-03T14:07:18.308Z,21.20
2019-03-03T14:12:11.944Z,21.20
2019-03-03T14:14:38.355Z,21.20
2019-03-03T14:17:04.482Z,21.20
2019-03-03T14:19:30.600Z,21.20
2019-03-03T14:21:57.039Z,21.30
2019-03-03T14:24:23.093Z,21.30
2019-03-03T14:26:49.296Z,21.30
2019-03-03T14:29:15.619Z,21.30
2019-03-03T14:31:42.839Z,21.30
2019-03-03T14:36:35.486Z,21.30
2019-03-03T14:39:01.862Z,21.30
2019-03-03T14:48:48.662Z,21.30
2019-03-03T14:51:14.713Z,21.30
2019-03-03T14:53:41.069Z,21.30
2019-03-03T14:56:07.111Z,21.30
2019-03-03T14:58:33.215Z,21.30
2019-03-03T15:03:25.744Z,21.30
2019-03-03T15:05:51.787Z,21.30
2019-03-03T15:13:10.927Z,21.30
2019-03-03T15:15:39.073Z,21.40
2019-03-03T15:20:32.681Z,21.40
2019-03-03T15:25:25.604Z,21.40
2019-03-03T15:27:51.752Z,21.40
2019-03-03T15:30:20.498Z,21.20
2019-03-03T15:37:41.864Z,21.30
2019-03-03T15:45:13.652Z,21.30
2019-03-03T15:50:08.327Z,21.30
2019-03-03T15:55:01.157Z,21.20
2019-03-03T15:57:27.564Z,21.20
2019-03-03T15:59:53.613Z,21.20
2019-03-03T16:02:19.722Z,21.20
2019-03-03T16:07:12.568Z,21.10
2019-03-03T16:09:38.676Z,21.10
2019-03-03T16:14:31.219Z,21.10
2019-03-03T16:16:57.324Z,21.10
2019-03-03T16:19:23.477Z,21.10
2019-03-03T16:24:16.392Z,21.10
2019-03-03T16:26:42.452Z,21.10
2019-03-03T16:29:08.820Z,21.00
2019-03-03T16:34:01.382Z,21.00
2019-03-03T16:41:20.672Z,21.00
2019-03-03T16:43:46.771Z,20.90
2019-03-03T16:46:13.063Z,20.90
2019-03-03T16:53:32.845Z,20.90
2019-03-03T16:55:59.167Z,21.00
2019-03-03T17:00:51.688Z,20.90
2019-03-03T17:08:10.932Z,20.80
2019-03-03T17:10:37.244Z,20.80
2019-03-03T17:13:03.393Z,20.80
2019-03-03T17:17:55.984Z,20.80
2019-03-03T17:20:22.768Z,20.80
2019-03-03T17:22:49.226Z,20.80
2019-03-03T17:25:23.485Z,20.80
2019-03-03T17:30:19.463Z,20.80
2019-03-03T17:35:13.652Z,20.70
2019-03-03T17:40:12.292Z,20.70
2019-03-03T17:42:38.684Z,20.70
2019-03-03T17:47:33.396Z,20.70
2019-03-03T17:52:25.944Z,20.80
2019-03-03T17:54:52.276Z,20.80
2019-03-03T17:57:18.710Z,20.80
2019-03-03T18:02:11.168Z,20.80
2019-03-03T18:07:03.687Z,20.90
2019-03-03T18:09:30.057Z,20.90
2019-03-03T18:11:56.584Z,20.80
2019-03-03T18:14:22.917Z,20.90
2019-03-03T18:16:49.097Z,20.90
2019-03-03T18:21:42.107Z,20.80
2019-03-03T18:24:08.208Z,20.80
2019-03-03T18:29:00.726Z,20.80
2019-03-03T18:33:53.184Z,20.80
2019-03-03T18:36:19.283Z,20.80
2019-03-03T18:41:12.116Z,20.70
2019-03-03T18:43:38.463Z,20.70
2019-03-03T18:48:32.964Z,20.60
2019-03-03T18:50:59.024Z,20.70
2019-03-03T18:55:51.863Z,20.70
2019-03-03T18:58:17.965Z,20.70
2019-03-03T19:05:37.505Z,20.80
2019-03-03T19:08:03.728Z,20.80
2019-03-03T19:12:58.441Z,20.90
2019-03-03T19:15:25.563Z,20.90
2019-03-03T19:17:51.740Z,20.90
2019-03-03T19:20:20.405Z,20.90
2019-03-03T19:22:48.852Z,21.00
2019-03-03T19:27:42.309Z,20.90
2019-03-03T19:30:20.821Z,20.90
2019-03-03T19:32:50.673Z,20.90
2019-03-03T19:35:17.197Z,21.00
2019-03-03T19:37:43.248Z,20.90
2019-03-03T19:42:37.395Z,20.90
2019-03-03T19:45:13.576Z,20.90
2019-03-03T19:47:39.680Z,20.90
2019-03-03T19:52:34.064Z,20.90
2019-03-03T19:55:00.319Z,20.90
2019-03-03T19:57:26.655Z,20.90
2019-03-03T19:59:53.089Z,20.90
2019-03-03T20:02:19.140Z,20.90
2019-03-03T20:09:38.092Z,20.90
2019-03-03T20:12:04.200Z,20.90
2019-03-03T20:14:30.556Z,20.90
2019-03-03T20:16:56.603Z,20.80
2019-03-03T20:21:49.401Z,20.90
2019-03-03T20:24:15.771Z,20.80
2019-03-03T20:26:42.107Z,20.80
2019-03-03T20:29:08.449Z,20.80
2019-03-03T20:31:34.539Z,20.80
2019-03-03T20:36:27.350Z,20.80
2019-03-03T20:38:53.435Z,20.80
2019-03-03T20:43:45.997Z,20.80
2019-03-03T20:46:12.095Z,20.80
2019-03-03T20:53:31.356Z,20.80
2019-03-03T20:55:57.752Z,20.80
2019-03-03T21:03:16.672Z,20.80
2019-03-03T21:08:09.188Z,20.70
2019-03-03T21:10:35.232Z,20.80
2019-03-03T21:13:01.281Z,20.70
2019-03-03T21:15:28.331Z,20.70
2019-03-03T21:17:54.427Z,20.80
2019-03-03T21:20:21.877Z,20.70
2019-03-03T21:27:42.248Z,20.70
2019-03-03T21:32:37.308Z,20.70
2019-03-03T21:37:31.730Z,20.70
2019-03-03T21:39:57.840Z,20.70
2019-03-03T21:42:23.890Z,20.70
2019-03-03T21:47:16.414Z,20.70
2019-03-03T21:49:42.749Z,20.70
2019-03-03T21:52:08.843Z,20.60
2019-03-03T21:57:01.384Z,20.60
2019-03-03T21:59:27.430Z,20.60
2019-03-03T22:01:53.540Z,20.60
2019-03-03T22:04:19.643Z,20.60
2019-03-03T22:06:45.692Z,20.60
2019-03-03T22:09:12.849Z,20.60
2019-03-03T22:11:38.949Z,20.60
2019-03-03T22:18:58.286Z,20.60
2019-03-03T22:21:24.624Z,20.60
2019-03-03T22:26:17.406Z,20.60
2019-03-03T22:28:43.484Z,20.50
2019-03-03T22:33:35.972Z,20.50
2019-03-03T22:36:02.051Z,20.50
2019-03-03T22:38:28.100Z,20.50
2019-03-03T22:40:54.440Z,20.50
2019-03-03T22:45:46.972Z,20.50
2019-03-03T22:48:13.020Z,20.50
2019-03-03T22:50:39.068Z,20.50
2019-03-03T22:55:35.305Z,20.50
2019-03-03T22:58:01.616Z,20.40
2019-03-03T23:00:45.670Z,20.40
2019-03-03T23:03:15.524Z,20.50
2019-03-03T23:05:57.321Z,20.50
2019-03-03T23:08:30.185Z,20.50
2019-03-03T23:11:00.034Z,20.40
2019-03-03T23:13:32.692Z,20.40
2019-03-03T23:16:15.065Z,20.40
2019-03-03T23:19:18.361Z,20.40
2019-03-03T23:22:03.716Z,20.40
2019-03-03T23:24:50.341Z,20.40
2019-03-03T23:27:16.965Z,20.40
2019-03-03T23:29:43.008Z,20.40
2019-03-03T23:32:09.092Z,20.40
2019-03-03T23:34:35.185Z,20.30
2019-03-03T23:39:28.031Z,20.40
2019-03-03T23:41:54.424Z,20.40
2019-03-03T23:46:46.921Z,20.30
2019-03-03T23:49:14.563Z,20.30
2019-03-03T23:54:07.353Z,20.30
2019-03-03T23:56:33.413Z,20.30
2019-03-03T23:58:59.758Z,20.30
